Time;durP1;ratioP1;P1;durP2;ratioP2;P2;SDS_P1;SDS_P2;PMS_P1;PMS_P2;Temp;Humidity;BMP_temperature;BMP_pressure;BME280_temperature;BME280_humidity;BME280_pressure;Samples;Min_cycle;Max_cycle;Signal;HPM_P1;HPM_P2
2022/03/18 00:01:28;;;;;;;10.90;5.03;;;;;;;;;;6072010;23;20197;-88
2022/03/18 00:03:57;;;;;;;8.33;4.00;;;;;;;;;;6071994;23;20197;-89
2022/03/18 00:06:25;;;;;;;4.20;2.93;;;;;;;;;;6072297;23;20192;-88
2022/03/18 00:08:54;;;;;;;8.20;5.50;;;;;;;;;;6072924;23;20181;-88
2022/03/18 00:11:22;;;;;;;9.63;4.47;;;;;;;;;;6073066;23;20205;-88
2022/03/18 00:13:51;;;;;;;13.33;5.17;;;;;;;;;;6072539;23;20177;-88
2022/03/18 00:16:20;;;;;;;8.30;5.77;;;;;;;;;;6072958;23;20181;-88
2022/03/18 00:18:50;;;;;;;8.60;5.30;;;;;;;;;;6072538;23;20203;-88
2022/03/18 00:21:19;;;;;;;15.30;5.43;;;;;;;;;;6072435;23;20184;-89
2022/03/18 00:23:47;;;;;;;10.10;4.90;;;;;;;;;;6072136;23;20209;-88
2022/03/18 00:26:16;;;;;;;10.00;4.83;;;;;;;;;;6072277;23;20177;-88
2022/03/18 00:28:44;;;;;;;7.33;4.63;;;;;;;;;;6072224;23;20187;-88
2022/03/18 00:31:13;;;;;;;8.60;4.67;;;;;;;;;;6072487;23;20177;-88
2022/03/18 00:33:41;;;;;;;9.87;4.70;;;;;;;;;;6072746;23;20186;-88
2022/03/18 00:36:11;;;;;;;12.37;5.10;;;;;;;;;;6071816;23;20237;-88
2022/03/18 00:38:40;;;;;;;3.00;2.03;;;;;;;;;;6072498;23;20188;-88
2022/03/18 00:41:09;;;;;;;7.50;4.60;;;;;;;;;;6072003;23;20201;-88
2022/03/18 00:43:37;;;;;;;8.80;3.80;;;;;;;;;;6071893;23;20209;-89
2022/03/18 00:46:06;;;;;;;3.57;3.13;;;;;;;;;;6072480;23;20178;-88
2022/03/18 00:54:08;;;;;;;3.53;2.33;;;;;;;;;;6072351;23;20273;-88
2022/03/18 00:56:36;;;;;;;5.70;3.70;;;;;;;;;;6071771;23;20209;-88
2022/03/18 00:59:08;;;;;;;9.27;4.87;;;;;;;;;;6072077;23;20198;-88
2022/03/18 01:01:36;;;;;;;8.17;3.77;;;;;;;;;;6072176;23;20184;-88
2022/03/18 01:04:05;;;;;;;3.67;2.90;;;;;;;;;;6097260;23;20194;-88
2022/03/18 01:06:35;;;;;;;1.27;1.27;;;;;;;;;;6072080;23;20245;-88
2022/03/18 01:09:04;;;;;;;2.47;2.23;;;;;;;;;;6071574;23;20178;-88
2022/03/18 01:11:33;;;;;;;5.27;3.67;;;;;;;;;;6071482;23;20268;-88
2022/03/18 01:14:01;;;;;;;9.07;4.80;;;;;;;;;;6097230;23;20183;-88
2022/03/18 01:16:30;;;;;;;17.63;4.20;;;;;;;;;;6072407;23;20180;-89
2022/03/18 01:18:58;;;;;;;1.67;1.57;;;;;;;;;;6072130;23;20184;-88
2022/03/18 01:21:27;;;;;;;0.97;0.97;;;;;;;;;;6097371;23;20179;-88
2022/03/18 01:23:57;;;;;;;5.50;1.97;;;;;;;;;;6097399;23;20194;-88
2022/03/18 01:26:26;;;;;;;0.80;0.80;;;;;;;;;;6072444;23;20236;-88
2022/03/18 01:28:56;;;;;;;4.67;2.27;;;;;;;;;;6071875;23;20182;-88
2022/03/18 01:31:25;;;;;;;4.63;2.07;;;;;;;;;;6072150;23;20207;-88
2022/03/18 01:33:53;;;;;;;4.97;3.37;;;;;;;;;;6071998;23;20206;-88
2022/03/18 01:36:26;;;;;;;6.57;4.57;;;;;;;;;;6072349;23;20190;-88
2022/03/18 01:38:54;;;;;;;2.23;2.13;;;;;;;;;;6072171;23;20266;-89
2022/03/18 01:41:24;;;;;;;1.57;1.47;;;;;;;;;;6072015;23;20181;-88
2022/03/18 01:43:53;;;;;;;0.60;0.60;;;;;;;;;;6071772;23;20301;-88
2022/03/18 01:46:22;;;;;;;0.70;0.70;;;;;;;;;;6072116;23;20200;-88
2022/03/18 01:48:50;;;;;;;0.70;0.70;;;;;;;;;;6079299;23;20220;-88
2022/03/18 01:51:19;;;;;;;1.10;1.10;;;;;;;;;;6096182;23;20178;-88
2022/03/18 01:54:43;;;;;;;1.10;1.10;;;;;;;;;;6095455;23;20174;-88
2022/03/18 01:56:37;;;;;;;0.70;0.70;;;;;;;;;;6095436;23;20178;-88
2022/03/18 01:59:06;;;;;;;1.43;1.43;;;;;;;;;;6096168;23;20211;-88
2022/03/18 02:01:36;;;;;;;0.70;0.70;;;;;;;;;;6120487;23;20207;-88
2022/03/18 02:04:05;;;;;;;0.67;0.67;;;;;;;;;;6095845;23;20243;-88
2022/03/18 02:06:37;;;;;;;3.33;1.87;;;;;;;;;;6096470;23;20206;-88
2022/03/18 02:09:06;;;;;;;0.80;0.80;;;;;;;;;;6097590;23;20184;-89
2022/03/18 02:11:34;;;;;;;0.70;0.70;;;;;;;;;;6098967;23;20195;-88
2022/03/18 02:14:04;;;;;;;1.17;1.17;;;;;;;;;;6097627;23;20265;-88
2022/03/18 02:16:33;;;;;;;0.70;0.70;;;;;;;;;;6097994;23;20252;-89
2022/03/18 02:19:01;;;;;;;1.10;1.10;;;;;;;;;;6099112;23;20182;-89
2022/03/18 02:21:30;;;;;;;0.80;0.80;;;;;;;;;;6098750;23;20176;-87
2022/03/18 02:24:00;;;;;;;0.80;0.80;;;;;;;;;;6098792;23;20236;-87
2022/03/18 02:26:29;;;;;;;0.80;0.80;;;;;;;;;;6097587;23;20181;-87
2022/03/18 02:28:58;;;;;;;0.73;0.73;;;;;;;;;;6122336;23;20241;-87
2022/03/18 02:31:30;;;;;;;0.80;0.80;;;;;;;;;;6097412;23;20213;-87
2022/03/18 02:33:58;;;;;;;0.70;0.70;;;;;;;;;;6098108;23;20174;-87
2022/03/18 02:36:27;;;;;;;0.70;0.70;;;;;;;;;;6097440;23;20184;-87
2022/03/18 02:38:55;;;;;;;0.80;0.80;;;;;;;;;;6097462;23;20178;-88
2022/03/18 02:41:25;;;;;;;0.80;0.80;;;;;;;;;;6097121;23;20183;-88
2022/03/18 02:43:54;;;;;;;0.80;0.80;;;;;;;;;;6121801;23;20319;-88
2022/03/18 02:46:23;;;;;;;0.70;0.70;;;;;;;;;;6096473;23;20253;-88
2022/03/18 02:48:51;;;;;;;0.80;0.80;;;;;;;;;;6096926;23;20301;-88
2022/03/18 02:51:20;;;;;;;0.80;0.80;;;;;;;;;;6097724;23;20187;-88
2022/03/18 02:53:49;;;;;;;2.07;2.07;;;;;;;;;;6097266;23;20179;-88
2022/03/18 02:56:18;;;;;;;0.80;0.80;;;;;;;;;;6097009;23;20181;-88
2022/03/18 02:58:47;;;;;;;0.80;0.80;;;;;;;;;;6096829;23;20179;-88
2022/03/18 03:01:18;;;;;;;0.70;0.70;;;;;;;;;;6097184;23;20183;-88
2022/03/18 03:03:47;;;;;;;0.70;0.70;;;;;;;;;;6121058;23;20296;-88
2022/03/18 03:09:02;;;;;;;0.70;0.70;;;;;;;;;;6097232;23;20473;-88
2022/03/18 03:11:30;;;;;;;0.70;0.70;;;;;;;;;;6097241;23;20181;-88
2022/03/18 03:14:00;;;;;;;0.70;0.70;;;;;;;;;;6096925;23;20229;-89
2022/03/18 03:16:29;;;;;;;0.70;0.70;;;;;;;;;;6096867;23;20182;-88
2022/03/18 03:18:58;;;;;;;0.70;0.70;;;;;;;;;;6120824;23;20203;-88
2022/03/18 03:21:26;;;;;;;0.70;0.70;;;;;;;;;;6097630;23;20192;-88
2022/03/18 03:23:55;;;;;;;1.70;1.70;;;;;;;;;;6096510;23;20232;-88
2022/03/18 03:26:23;;;;;;;0.70;0.70;;;;;;;;;;6097187;23;20187;-88
2022/03/18 03:28:52;;;;;;;0.70;0.70;;;;;;;;;;6096929;23;20183;-88
2022/03/18 03:31:21;;;;;;;0.70;0.70;;;;;;;;;;6121282;23;20183;-88
2022/03/18 03:33:50;;;;;;;0.80;0.80;;;;;;;;;;6097017;23;20180;-88
2022/03/18 03:36:19;;;;;;;0.70;0.70;;;;;;;;;;6096667;23;20182;-88
2022/03/18 03:38:47;;;;;;;0.70;0.70;;;;;;;;;;6096545;23;20177;-88
2022/03/18 03:41:18;;;;;;;0.70;0.70;;;;;;;;;;6098347;23;20170;-88
2022/03/18 03:43:46;;;;;;;0.67;0.67;;;;;;;;;;6096856;23;20229;-88
2022/03/18 03:46:15;;;;;;;0.70;0.70;;;;;;;;;;6120831;23;20183;-88
2022/03/18 03:48:45;;;;;;;0.70;0.70;;;;;;;;;;6096443;23;20212;-88
2022/03/18 03:51:13;;;;;;;0.70;0.70;;;;;;;;;;6096349;23;20206;-88
2022/03/18 03:53:42;;;;;;;0.70;0.70;;;;;;;;;;6120899;23;20182;-88
2022/03/18 03:56:10;;;;;;;0.90;0.90;;;;;;;;;;6096412;23;20184;-88
2022/03/18 03:58:39;;;;;;;0.70;0.70;;;;;;;;;;6121551;23;20205;-88
2022/03/18 04:01:07;;;;;;;0.70;0.70;;;;;;;;;;6096775;23;20276;-88
2022/03/18 04:03:36;;;;;;;0.80;0.80;;;;;;;;;;6096691;23;20206;-88
2022/03/18 04:06:06;;;;;;;0.80;0.80;;;;;;;;;;6096298;23;20198;-88
2022/03/18 04:08:36;;;;;;;0.70;0.70;;;;;;;;;;6098030;23;20244;-88
2022/03/18 04:11:05;;;;;;;2.60;2.50;;;;;;;;;;6096012;23;20181;-89
2022/03/18 04:13:33;;;;;;;0.80;0.80;;;;;;;;;;6097374;23;20201;-88
2022/03/18 04:16:02;;;;;;;0.73;0.73;;;;;;;;;;6096005;23;20183;-88
2022/03/18 04:18:30;;;;;;;2.60;2.40;;;;;;;;;;6095879;23;20190;-88
2022/03/18 04:20:59;;;;;;;0.77;0.77;;;;;;;;;;6096385;23;20189;-88
2022/03/18 04:23:29;;;;;;;1.07;1.07;;;;;;;;;;6096460;23;20178;-88
2022/03/18 04:25:57;;;;;;;0.80;0.80;;;;;;;;;;6121166;23;20245;-88
2022/03/18 04:28:26;;;;;;;0.70;0.70;;;;;;;;;;6096138;23;20189;-88
2022/03/18 04:30:54;;;;;;;2.90;2.80;;;;;;;;;;6096184;23;20189;-88
2022/03/18 04:33:23;;;;;;;0.90;0.90;;;;;;;;;;6096410;23;20193;-88
2022/03/18 04:35:52;;;;;;;0.80;0.80;;;;;;;;;;6096227;23;20177;-88
2022/03/18 04:38:20;;;;;;;1.00;1.00;;;;;;;;;;6096963;23;20294;-88
2022/03/18 04:40:50;;;;;;;5.53;1.57;;;;;;;;;;6095826;23;20182;-88
2022/03/18 04:43:19;;;;;;;0.80;0.80;;;;;;;;;;6096631;23;20185;-88
2022/03/18 04:45:47;;;;;;;0.93;0.93;;;;;;;;;;6096260;23;20284;-88
2022/03/18 04:48:16;;;;;;;0.80;0.80;;;;;;;;;;6096242;23;20180;-88
2022/03/18 04:50:44;;;;;;;0.80;0.80;;;;;;;;;;6072084;23;20184;-88
2022/03/18 04:53:14;;;;;;;0.80;0.80;;;;;;;;;;6072562;23;20220;-88
2022/03/18 04:55:43;;;;;;;1.57;1.47;;;;;;;;;;6097719;23;20270;-88
2022/03/18 04:58:13;;;;;;;1.20;1.20;;;;;;;;;;6072541;23;20185;-88
2022/03/18 05:00:41;;;;;;;0.90;0.90;;;;;;;;;;6072209;23;20209;-88
2022/03/18 05:03:10;;;;;;;0.80;0.80;;;;;;;;;;6072287;23;20192;-88
2022/03/18 05:05:39;;;;;;;0.70;0.70;;;;;;;;;;6071959;23;20200;-88
2022/03/18 05:08:09;;;;;;;1.17;1.17;;;;;;;;;;6097274;23;20174;-88
2022/03/18 05:10:37;;;;;;;1.37;1.37;;;;;;;;;;6072191;23;20210;-88
2022/03/18 05:13:06;;;;;;;2.47;2.30;;;;;;;;;;6097605;23;20169;-88
2022/03/18 05:15:36;;;;;;;1.10;1.10;;;;;;;;;;6071565;23;20209;-89
2022/03/18 05:18:05;;;;;;;0.90;0.90;;;;;;;;;;6071910;23;20178;-88
2022/03/18 05:20:34;;;;;;;0.80;0.80;;;;;;;;;;6072159;23;20175;-88
2022/03/18 05:23:06;;;;;;;2.17;2.07;;;;;;;;;;6071813;23;20180;-88
2022/03/18 05:25:34;;;;;;;0.80;0.80;;;;;;;;;;6071463;23;20208;-88
2022/03/18 05:28:02;;;;;;;0.80;0.80;;;;;;;;;;6072203;23;20181;-88
2022/03/18 05:30:31;;;;;;;1.20;1.20;;;;;;;;;;6097265;23;20276;-88
2022/03/18 05:33:01;;;;;;;0.90;0.90;;;;;;;;;;6072085;23;20246;-87
2022/03/18 05:35:29;;;;;;;0.77;0.77;;;;;;;;;;6072363;23;20178;-88
2022/03/18 05:37:58;;;;;;;0.70;0.70;;;;;;;;;;6071633;23;20182;-88
2022/03/18 05:40:27;;;;;;;0.80;0.80;;;;;;;;;;6071467;23;20177;-88
2022/03/18 05:42:55;;;;;;;0.70;0.70;;;;;;;;;;6073012;23;20184;-88
2022/03/18 05:45:23;;;;;;;0.93;0.93;;;;;;;;;;6073397;23;20268;-88
2022/03/18 05:47:52;;;;;;;1.00;1.00;;;;;;;;;;6074050;23;20206;-88
2022/03/18 05:50:23;;;;;;;0.80;0.80;;;;;;;;;;6096403;23;20209;-88
2022/03/18 05:52:55;;;;;;;3.97;1.77;;;;;;;;;;6098271;23;20264;-88
2022/03/18 05:55:24;;;;;;;0.80;0.80;;;;;;;;;;6098483;23;20178;-87
2022/03/18 05:57:52;;;;;;;0.80;0.80;;;;;;;;;;6098546;23;20188;-87
2022/03/18 06:00:21;;;;;;;1.10;1.10;;;;;;;;;;6097923;23;20182;-87
2022/03/18 06:02:53;;;;;;;0.80;0.80;;;;;;;;;;6098938;23;20204;-87
2022/03/18 06:05:23;;;;;;;1.10;1.10;;;;;;;;;;6097759;23;20191;-87
2022/03/18 06:11:48;;;;;;;0.80;0.80;;;;;;;;;;6097773;23;20202;-87
2022/03/18 06:13:26;;;;;;;0.90;0.90;;;;;;;;;;6097705;23;20190;-87
2022/03/18 06:15:54;;;;;;;1.53;1.53;;;;;;;;;;6121926;23;20199;-87
2022/03/18 06:18:43;;;;;;;0.90;0.90;;;;;;;;;;6098034;23;20189;-88
2022/03/18 06:21:15;;;;;;;0.80;0.80;;;;;;;;;;6098054;23;20227;-88
2022/03/18 06:23:43;;;;;;;0.80;0.80;;;;;;;;;;6097849;23;20203;-87
2022/03/18 06:26:11;;;;;;;0.80;0.80;;;;;;;;;;6097327;23;20197;-87
2022/03/18 06:28:40;;;;;;;0.80;0.80;;;;;;;;;;6097782;23;20231;-86
2022/03/18 06:31:09;;;;;;;0.80;0.80;;;;;;;;;;6097585;23;20182;-86
2022/03/18 06:33:43;;;;;;;0.80;0.80;;;;;;;;;;6073460;23;20205;-87
2022/03/18 06:36:13;;;;;;;0.90;0.90;;;;;;;;;;6097815;23;20180;-87
2022/03/18 06:38:41;;;;;;;0.80;0.80;;;;;;;;;;6097703;23;20206;-87
2022/03/18 06:41:10;;;;;;;0.80;0.80;;;;;;;;;;6097670;23;20186;-87
2022/03/18 06:43:38;;;;;;;1.83;1.73;;;;;;;;;;6097252;23;20178;-86
2022/03/18 06:46:07;;;;;;;2.00;1.90;;;;;;;;;;6097036;23;20203;-85
2022/03/18 06:48:35;;;;;;;3.43;2.90;;;;;;;;;;6097083;23;20181;-85
2022/03/18 06:51:04;;;;;;;6.93;3.17;;;;;;;;;;6073779;23;20187;-85
2022/03/18 06:53:34;;;;;;;102.80;7.60;;;;;;;;;;6098103;23;20177;-85
2022/03/18 06:56:04;;;;;;;1.33;1.33;;;;;;;;;;6098754;23;20244;-85
2022/03/18 06:58:33;;;;;;;3.37;3.07;;;;;;;;;;6072967;23;20245;-85
2022/03/18 07:01:01;;;;;;;11.00;3.37;;;;;;;;;;6098400;23;20173;-85
2022/03/18 07:03:30;;;;;;;8.13;3.43;;;;;;;;;;6074839;23;20224;-85
2022/03/18 07:05:58;;;;;;;5.10;2.20;;;;;;;;;;6073471;23;20190;-85
2022/03/18 07:08:27;;;;;;;8.90;3.73;;;;;;;;;;6073825;23;20273;-85
2022/03/18 07:11:00;;;;;;;7.43;4.43;;;;;;;;;;6073902;23;20185;-85
2022/03/18 07:13:28;;;;;;;4.90;2.60;;;;;;;;;;6073636;23;20185;-86
2022/03/18 07:17:54;;;;;;;2.60;2.50;;;;;;;;;;6072943;23;20313;-85
2022/03/18 07:18:45;;;;;;;7.37;4.73;;;;;;;;;;6072945;23;20192;-86
2022/03/18 07:21:14;;;;;;;1.90;1.80;;;;;;;;;;6098782;23;20173;-85
2022/03/18 07:23:43;;;;;;;3.30;2.70;;;;;;;;;;6072868;23;20183;-86
2022/03/18 07:26:13;;;;;;;0.93;0.93;;;;;;;;;;6098123;23;20209;-85
2022/03/18 07:28:41;;;;;;;0.70;0.70;;;;;;;;;;6072695;23;20188;-86
2022/03/18 07:31:09;;;;;;;1.33;1.33;;;;;;;;;;6073204;23;20181;-86
2022/03/18 07:33:38;;;;;;;0.70;0.70;;;;;;;;;;6072742;23;20177;-84
2022/03/18 07:36:07;;;;;;;0.70;0.70;;;;;;;;;;6097838;23;20248;-85
2022/03/18 07:38:35;;;;;;;0.80;0.80;;;;;;;;;;6072646;23;20273;-84
2022/03/18 07:41:04;;;;;;;0.77;0.77;;;;;;;;;;6073098;23;20187;-84
2022/03/18 07:43:37;;;;;;;1.07;1.07;;;;;;;;;;6072074;23;20218;-84
2022/03/18 07:46:06;;;;;;;0.80;0.80;;;;;;;;;;6069782;23;20289;-84
2022/03/18 07:48:40;;;;;;;0.70;0.70;;;;;;;;;;6072030;23;20218;-84
2022/03/18 07:51:10;;;;;;;1.73;1.73;;;;;;;;;;6067503;23;20180;-85
2022/03/18 07:53:38;;;;;;;0.80;0.80;;;;;;;;;;6069319;23;20198;-86
2022/03/18 07:56:07;;;;;;;1.63;1.53;;;;;;;;;;6070800;23;20175;-85
2022/03/18 07:58:37;;;;;;;0.70;0.70;;;;;;;;;;6071683;23;20211;-85
2022/03/18 08:01:06;;;;;;;0.70;0.70;;;;;;;;;;6071141;23;20270;-86
2022/03/18 08:03:35;;;;;;;0.90;0.90;;;;;;;;;;6070927;23;20207;-85
2022/03/18 08:06:04;;;;;;;8.17;2.13;;;;;;;;;;6071288;23;20193;-87
2022/03/18 08:08:33;;;;;;;0.70;0.70;;;;;;;;;;6071129;23;20185;-85
2022/03/18 08:11:02;;;;;;;1.07;0.90;;;;;;;;;;6070126;23;20180;-85
2022/03/18 08:13:31;;;;;;;0.70;0.70;;;;;;;;;;6070596;23;20289;-85
2022/03/18 08:16:01;;;;;;;1.20;1.13;;;;;;;;;;6069849;23;20181;-85
2022/03/18 08:18:32;;;;;;;1.57;1.47;;;;;;;;;;6069164;23;20177;-85
2022/03/18 08:21:20;;;;;;;0.70;0.70;;;;;;;;;;6070092;23;20235;-86
2022/03/18 08:23:57;;;;;;;0.90;0.90;;;;;;;;;;6069438;23;20240;-85
2022/03/18 08:26:26;;;;;;;1.50;1.50;;;;;;;;;;6070942;23;20277;-86
2022/03/18 08:28:57;;;;;;;0.90;0.90;;;;;;;;;;6071013;23;20177;-87
2022/03/18 08:31:31;;;;;;;0.80;0.80;;;;;;;;;;6071796;23;20184;-85
2022/03/18 08:34:03;;;;;;;1.33;1.30;;;;;;;;;;6070216;23;20211;-87
2022/03/18 08:36:32;;;;;;;0.80;0.80;;;;;;;;;;6071430;23;20187;-85
2022/03/18 08:39:03;;;;;;;1.27;1.00;;;;;;;;;;6071002;23;20181;-85
2022/03/18 08:41:36;;;;;;;2.83;2.03;;;;;;;;;;6095007;23;20181;-85
2022/03/18 08:44:08;;;;;;;0.70;0.70;;;;;;;;;;6070421;23;20185;-87
2022/03/18 08:46:49;;;;;;;4.87;2.40;;;;;;;;;;6069732;23;20223;-86
2022/03/18 08:49:18;;;;;;;4.40;1.73;;;;;;;;;;6082396;23;20238;-86
2022/03/18 08:51:47;;;;;;;2.37;1.87;;;;;;;;;;6099430;23;20176;-87
2022/03/18 08:54:16;;;;;;;3.50;2.43;;;;;;;;;;6123762;23;20313;-85
2022/03/18 08:56:45;;;;;;;1.90;1.70;;;;;;;;;;6099437;23;20223;-87
2022/03/18 08:59:20;;;;;;;2.20;2.00;;;;;;;;;;6100955;23;20180;-86
2022/03/18 09:01:57;;;;;;;5.40;3.70;;;;;;;;;;6101812;23;20184;-86
2022/03/18 09:05:14;;;;;;;5.17;4.40;;;;;;;;;;6095090;23;20257;-89
2022/03/18 09:08:14;;;;;;;4.37;2.27;;;;;;;;;;6125487;23;20229;-90
2022/03/18 09:10:48;;;;;;;4.00;2.73;;;;;;;;;;6100175;23;20196;-85
2022/03/18 09:13:26;;;;;;;3.07;2.87;;;;;;;;;;6123476;23;20239;-85
2022/03/18 09:16:17;;;;;;;4.27;3.30;;;;;;;;;;6100952;23;20215;-84
2022/03/18 09:19:03;;;;;;;3.73;2.83;;;;;;;;;;6102960;23;20184;-86
2022/03/18 09:21:41;;;;;;;1.17;1.17;;;;;;;;;;6103634;23;20268;-86
2022/03/18 09:24:11;;;;;;;4.17;1.77;;;;;;;;;;6100446;23;20180;-86
2022/03/18 09:26:40;;;;;;;2.57;2.37;;;;;;;;;;6101953;23;20227;-85
2022/03/18 09:29:26;;;;;;;7.80;3.20;;;;;;;;;;6103462;23;20180;-86
2022/03/18 09:31:59;;;;;;;2.80;2.20;;;;;;;;;;6104552;23;20176;-86
2022/03/18 09:34:35;;;;;;;10.47;5.03;;;;;;;;;;6103456;23;20182;-85
2022/03/18 09:37:04;;;;;;;8.60;4.17;;;;;;;;;;6102999;23;20262;-85
2022/03/18 09:39:44;;;;;;;3.53;3.20;;;;;;;;;;6103360;23;20176;-86
2022/03/18 09:42:13;;;;;;;3.63;2.67;;;;;;;;;;6103803;23;20195;-85
2022/03/18 09:44:45;;;;;;;4.50;2.60;;;;;;;;;;6101952;23;20267;-85
2022/03/18 09:47:17;;;;;;;1.97;1.87;;;;;;;;;;6101410;23;20200;-84
2022/03/18 09:49:47;;;;;;;4.57;2.83;;;;;;;;;;6101347;23;20213;-85
2022/03/18 09:52:16;;;;;;;2.07;1.97;;;;;;;;;;6099678;23;20180;-85
2022/03/18 09:54:45;;;;;;;2.90;2.70;;;;;;;;;;6123668;23;20176;-85
2022/03/18 09:57:14;;;;;;;3.70;3.27;;;;;;;;;;6098758;23;20203;-85
2022/03/18 09:59:47;;;;;;;5.17;2.50;;;;;;;;;;6125820;23;20177;-86
2022/03/18 10:02:36;;;;;;;3.93;2.80;;;;;;;;;;6102667;23;20191;-85
2022/03/18 10:05:17;;;;;;;5.10;3.47;;;;;;;;;;6102134;23;20197;-86
2022/03/18 10:07:54;;;;;;;3.60;2.20;;;;;;;;;;6101946;23;20200;-85
2022/03/18 10:10:51;;;;;;;3.37;3.07;;;;;;;;;;6102926;23;20174;-86
2022/03/18 10:13:20;;;;;;;5.10;4.60;;;;;;;;;;6126031;23;20182;-86
2022/03/18 10:15:49;;;;;;;1.73;1.60;;;;;;;;;;6101634;23;20185;-86
2022/03/18 10:18:20;;;;;;;7.20;3.37;;;;;;;;;;6125156;23;20240;-86
2022/03/18 10:20:50;;;;;;;5.83;3.17;;;;;;;;;;6100724;23;20182;-86
2022/03/18 10:23:21;;;;;;;4.27;3.87;;;;;;;;;;6126202;23;20177;-87
2022/03/18 10:25:54;;;;;;;2.83;2.07;;;;;;;;;;6101470;23;20224;-86
2022/03/18 10:28:36;;;;;;;2.53;2.10;;;;;;;;;;6125741;23;20204;-86
2022/03/18 10:31:19;;;;;;;6.83;3.03;;;;;;;;;;6101739;23;20179;-86
2022/03/18 10:39:37;;;;;;;9.20;4.93;;;;;;;;;;6102421;23;20172;-86
2022/03/18 10:42:22;;;;;;;10.63;5.60;;;;;;;;;;6127018;23;20183;-86
2022/03/18 10:44:58;;;;;;;5.77;4.97;;;;;;;;;;6102258;23;20201;-86
2022/03/18 10:47:33;;;;;;;8.80;4.13;;;;;;;;;;6126436;23;20202;-85
2022/03/18 10:50:23;;;;;;;2.20;2.00;;;;;;;;;;6101057;23;20243;-85
2022/03/18 10:53:04;;;;;;;7.80;3.77;;;;;;;;;;6101240;23;20193;-86
2022/03/18 10:55:37;;;;;;;3.33;3.10;;;;;;;;;;6125736;23;20214;-86
2022/03/18 10:58:10;;;;;;;5.57;2.93;;;;;;;;;;6100908;23;20186;-84
2022/03/18 11:00:40;;;;;;;3.27;2.70;;;;;;;;;;6100510;23;20187;-84
2022/03/18 11:03:09;;;;;;;4.43;2.93;;;;;;;;;;6100425;23;20387;-85
2022/03/18 11:05:39;;;;;;;3.70;3.27;;;;;;;;;;6100931;23;20184;-84
2022/03/18 11:08:13;;;;;;;5.63;3.50;;;;;;;;;;6101326;23;20198;-85
2022/03/18 11:13:37;;;;;;;2.97;2.63;;;;;;;;;;6101680;23;20175;-87
2022/03/18 11:16:18;;;;;;;10.17;2.10;;;;;;;;;;6101089;23;20182;-86
2022/03/18 11:18:50;;;;;;;5.90;3.43;;;;;;;;;;6101890;23;20176;-87
2022/03/18 11:21:24;;;;;;;2.23;2.10;;;;;;;;;;6100898;23;20182;-86
2022/03/18 11:23:58;;;;;;;8.33;3.43;;;;;;;;;;6101121;23;20187;-85
2022/03/18 11:26:28;;;;;;;5.40;3.07;;;;;;;;;;6126736;23;20183;-85
2022/03/18 11:29:14;;;;;;;1.23;1.17;;;;;;;;;;6101698;23;20196;-86
2022/03/18 11:32:06;;;;;;;3.23;1.73;;;;;;;;;;6101035;23;20179;-85
2022/03/18 11:34:46;;;;;;;3.40;2.63;;;;;;;;;;6100914;23;20251;-85
2022/03/18 11:37:15;;;;;;;1.80;1.63;;;;;;;;;;6101254;23;20187;-85
2022/03/18 11:39:48;;;;;;;9.17;2.60;;;;;;;;;;6100378;23;20207;-85
2022/03/18 11:42:21;;;;;;;1.33;1.23;;;;;;;;;;6099821;23;20207;-85
2022/03/18 11:44:55;;;;;;;3.13;1.53;;;;;;;;;;6100457;23;20183;-85
2022/03/18 11:47:38;;;;;;;5.87;4.10;;;;;;;;;;6100104;23;20202;-86
2022/03/18 11:50:40;;;;;;;8.57;3.57;;;;;;;;;;6100262;23;20215;-86
2022/03/18 11:53:12;;;;;;;2.23;2.10;;;;;;;;;;6101180;23;20191;-86
2022/03/18 11:55:44;;;;;;;10.33;3.57;;;;;;;;;;6100482;23;20191;-86
2022/03/18 11:58:31;;;;;;;4.53;2.07;;;;;;;;;;6100599;23;20182;-86
2022/03/18 12:01:04;;;;;;;6.17;2.73;;;;;;;;;;6100294;23;20183;-87
2022/03/18 12:03:42;;;;;;;6.70;3.40;;;;;;;;;;6125153;23;20198;-86
2022/03/18 12:06:19;;;;;;;8.00;3.93;;;;;;;;;;6101664;23;20190;-85
2022/03/18 12:09:12;;;;;;;9.67;5.20;;;;;;;;;;6102828;23;20211;-87
2022/03/18 12:11:46;;;;;;;2.23;2.00;;;;;;;;;;6102309;23;20193;-87
2022/03/18 12:14:15;;;;;;;5.60;2.70;;;;;;;;;;6125984;23;20218;-86
2022/03/18 12:16:44;;;;;;;1.40;1.30;;;;;;;;;;6101230;23;20183;-86
2022/03/18 12:19:33;;;;;;;7.47;3.47;;;;;;;;;;6101220;23;20214;-86
2022/03/18 12:22:02;;;;;;;8.97;3.80;;;;;;;;;;6103828;23;20241;-86
2022/03/18 12:24:40;;;;;;;1.73;1.60;;;;;;;;;;6101082;23;20210;-86
2022/03/18 12:27:11;;;;;;;3.90;2.50;;;;;;;;;;6100107;23;20226;-85
2022/03/18 12:29:40;;;;;;;5.07;3.03;;;;;;;;;;6099666;23;20205;-85
2022/03/18 12:32:10;;;;;;;7.77;3.03;;;;;;;;;;6100065;23;20189;-85
2022/03/18 12:34:47;;;;;;;5.63;3.93;;;;;;;;;;6100082;23;20279;-85
2022/03/18 12:37:20;;;;;;;2.87;2.63;;;;;;;;;;6124441;23;20179;-86
2022/03/18 12:40:02;;;;;;;5.97;2.57;;;;;;;;;;6125219;23;20231;-85
2022/03/18 12:42:33;;;;;;;6.97;2.43;;;;;;;;;;6124359;23;20186;-85
2022/03/18 12:45:24;;;;;;;3.53;1.97;;;;;;;;;;6100051;23;20190;-85
2022/03/18 12:47:56;;;;;;;1.40;1.30;;;;;;;;;;6124052;23;20183;-86
2022/03/18 12:50:30;;;;;;;4.63;2.13;;;;;;;;;;6099969;23;20215;-85
2022/03/18 12:52:59;;;;;;;4.30;3.43;;;;;;;;;;6100159;23;20328;-85
2022/03/18 12:55:29;;;;;;;6.03;2.03;;;;;;;;;;6124158;23;20271;-85
2022/03/18 12:58:04;;;;;;;5.30;2.50;;;;;;;;;;6100157;23;20179;-85
2022/03/18 13:00:40;;;;;;;2.67;2.47;;;;;;;;;;6099909;23;20178;-84
2022/03/18 13:03:16;;;;;;;2.33;2.13;;;;;;;;;;6124392;23;20193;-86
2022/03/18 13:05:45;;;;;;;7.07;3.60;;;;;;;;;;6099192;23;20238;-86
2022/03/18 13:08:17;;;;;;;7.97;2.90;;;;;;;;;;6099216;23;20206;-84
2022/03/18 13:10:54;;;;;;;6.03;3.63;;;;;;;;;;6099790;23;20194;-85
2022/03/18 13:13:27;;;;;;;2.37;2.10;;;;;;;;;;6124247;23;20182;-85
2022/03/18 13:16:01;;;;;;;2.87;2.17;;;;;;;;;;6099275;23;20182;-85
2022/03/18 13:18:35;;;;;;;8.37;3.53;;;;;;;;;;6099941;23;20183;-84
2022/03/18 13:21:04;;;;;;;4.27;2.50;;;;;;;;;;6123990;23;20187;-84
2022/03/18 13:23:38;;;;;;;5.10;3.03;;;;;;;;;;6099747;23;20180;-85
2022/03/18 13:26:07;;;;;;;4.00;2.83;;;;;;;;;;6099849;23;20230;-86
2022/03/18 13:28:40;;;;;;;7.43;3.93;;;;;;;;;;6099372;23;20291;-86
2022/03/18 13:33:59;;;;;;;9.40;4.13;;;;;;;;;;6099859;23;20277;-84
2022/03/18 13:36:44;;;;;;;;;;;;;;;;;;;;;
2022/03/18 13:39:21;;;;;;;6.50;3.40;;;;;;;;;;6098948;23;20179;-85
2022/03/18 13:41:55;;;;;;;5.83;2.77;;;;;;;;;;6099939;23;20183;-86
2022/03/18 13:44:43;;;;;;;7.50;4.43;;;;;;;;;;6096888;23;20245;-86
2022/03/18 13:47:28;;;;;;;5.57;2.07;;;;;;;;;;6093294;23;20243;-86
2022/03/18 13:50:07;;;;;;;8.17;3.83;;;;;;;;;;6094358;23;20239;-87
2022/03/18 13:52:40;;;;;;;1.40;1.30;;;;;;;;;;6097637;23;20183;-88
2022/03/18 13:55:20;;;;;;;4.73;2.57;;;;;;;;;;6096284;23;20185;-86
2022/03/18 13:58:27;;;;;;;1.83;1.73;;;;;;;;;;5978181;23;20194;-88
2022/03/18 14:01:27;;;;;;;5.97;3.20;;;;;;;;;;5949794;24;20194;-87
2022/03/18 14:04:06;;;;;;;10.33;4.33;;;;;;;;;;5976114;23;20259;-88
2022/03/18 15:39:29;;;;;;;5.77;3.00;;;;;;;;;;6201558;23;20225;-90
2022/03/18 15:42:01;;;;;;;8.10;3.93;;;;;;;;;;6185651;23;20176;-88
2022/03/18 15:44:30;;;;;;;5.77;3.00;;;;;;;;;;6184445;23;20181;-89
2022/03/18 15:47:01;;;;;;;5.10;3.63;;;;;;;;;;6185644;23;20176;-89
2022/03/18 15:49:35;;;;;;;7.07;3.43;;;;;;;;;;6184241;23;20211;-90
2022/03/18 15:52:11;;;;;;;4.47;2.90;;;;;;;;;;6184269;23;20201;-87
2022/03/18 15:54:43;;;;;;;5.10;3.23;;;;;;;;;;6185603;23;20230;-88
2022/03/18 15:57:13;;;;;;;5.80;3.80;;;;;;;;;;6184585;23;20213;-88
2022/03/18 15:59:42;;;;;;;4.90;3.73;;;;;;;;;;6189290;23;20181;-87
2022/03/18 16:02:13;;;;;;;8.13;4.20;;;;;;;;;;6188571;23;20204;-88
2022/03/18 16:04:41;;;;;;;8.50;4.33;;;;;;;;;;6184371;23;20201;-88
2022/03/18 16:07:10;;;;;;;5.40;3.90;;;;;;;;;;6158850;23;20191;-88
2022/03/18 16:09:39;;;;;;;3.43;2.50;;;;;;;;;;6159178;23;20197;-88
2022/03/18 16:12:10;;;;;;;5.70;2.90;;;;;;;;;;6159282;23;20178;-88
2022/03/18 16:14:38;;;;;;;2.90;2.03;;;;;;;;;;6159034;23;20229;-87
2022/03/18 16:17:10;;;;;;;2.43;2.20;;;;;;;;;;6158978;23;20182;-88
2022/03/18 16:19:40;;;;;;;8.10;4.07;;;;;;;;;;6159472;23;20181;-88
2022/03/18 16:22:29;;;;;;;6.13;3.03;;;;;;;;;;6157573;23;20204;-88
2022/03/18 16:25:00;;;;;;;4.87;2.43;;;;;;;;;;6159026;23;20180;-88
2022/03/18 16:27:31;;;;;;;8.43;3.43;;;;;;;;;;6159087;23;20176;-88
2022/03/18 16:30:00;;;;;;;6.27;3.37;;;;;;;;;;6158504;23;20205;-88
2022/03/18 16:32:29;;;;;;;9.03;1.90;;;;;;;;;;6158986;23;20207;-89
2022/03/18 16:34:58;;;;;;;6.70;2.77;;;;;;;;;;6159328;23;20181;-88
2022/03/18 16:37:27;;;;;;;5.33;2.20;;;;;;;;;;6159375;23;20197;-88
2022/03/18 16:39:56;;;;;;;10.40;2.47;;;;;;;;;;6158527;23;20202;-88
2022/03/18 16:42:24;;;;;;;5.20;2.70;;;;;;;;;;6159425;23;20236;-88
2022/03/18 16:44:58;;;;;;;9.03;2.77;;;;;;;;;;6158704;23;20203;-88
2022/03/18 16:50:13;;;;;;;3.30;1.63;;;;;;;;;;6158692;23;20194;-88
2022/03/18 16:52:42;;;;;;;7.53;2.60;;;;;;;;;;6158991;23;20183;-89
2022/03/18 16:55:19;;;;;;;10.20;3.30;;;;;;;;;;6157152;23;20187;-88
2022/03/18 16:57:50;;;;;;;2.80;2.57;;;;;;;;;;6158201;23;20204;-88
2022/03/18 17:00:22;;;;;;;7.27;3.13;;;;;;;;;;6159725;23;20177;-89
2022/03/18 17:02:51;;;;;;;9.07;3.00;;;;;;;;;;6183023;23;20223;-88
2022/03/18 17:05:24;;;;;;;10.50;2.53;;;;;;;;;;6184587;23;20195;-88
2022/03/18 17:07:55;;;;;;;7.67;3.20;;;;;;;;;;6160219;23;20177;-88
2022/03/18 17:10:24;;;;;;;8.67;4.07;;;;;;;;;;6159768;23;20195;-88